createdAt,value
2018-04-02T01:14:49.866Z,3.50
2018-04-02T01:18:12.707Z,3.50
2018-04-02T01:21:35.553Z,3.50
2018-04-02T01:24:58.426Z,3.50
2018-04-02T01:28:21.259Z,3.50
2018-04-02T01:31:44.098Z,3.50
2018-04-02T01:35:06.987Z,3.50
2018-04-02T01:38:30.593Z,3.40
2018-04-02T01:41:53.447Z,3.40
2018-04-02T01:45:16.301Z,3.40
2018-04-02T01:48:39.142Z,3.40
2018-04-02T01:52:02.094Z,3.40
2018-04-02T01:55:24.923Z,3.40
2018-04-02T01:58:47.748Z,3.40
2018-04-02T02:02:10.642Z,3.50
2018-04-02T02:05:33.511Z,3.40
2018-04-02T02:08:57.112Z,3.20
2018-04-02T02:12:19.959Z,3.20
2018-04-02T02:15:42.854Z,3.10
2018-04-02T02:19:05.661Z,3.20
2018-04-02T02:22:28.497Z,3.10
2018-04-02T02:25:51.354Z,3.00
2018-04-02T02:29:14.183Z,3.00
2018-04-02T02:32:37.029Z,3.00
2018-04-02T02:35:59.904Z,3.00
2018-04-02T02:39:22.736Z,2.90
2018-04-02T02:42:45.588Z,3.00
2018-04-02T02:46:08.475Z,3.00
2018-04-02T02:49:32.074Z,2.90
2018-04-02T02:52:54.931Z,2.80
2018-04-02T02:56:17.787Z,2.90
2018-04-02T02:59:41.644Z,2.80
2018-04-02T03:03:04.487Z,2.70
2018-04-02T03:06:27.360Z,2.70
2018-04-02T03:09:50.196Z,2.70
2018-04-02T03:13:13.047Z,2.70
2018-04-02T03:16:35.884Z,2.80
2018-04-02T03:19:58.755Z,2.90
2018-04-02T03:23:21.573Z,2.80
2018-04-02T03:26:44.417Z,2.80
2018-04-02T03:30:07.282Z,2.80
2018-04-02T03:33:30.209Z,2.80
2018-04-02T03:36:53.042Z,2.80
2018-04-02T03:40:15.892Z,2.80
2018-04-02T03:43:38.728Z,2.70
2018-04-02T03:47:01.588Z,2.80
2018-04-02T03:50:24.445Z,2.70
2018-04-02T03:53:47.269Z,2.70
2018-04-02T03:57:10.141Z,2.70
2018-04-02T04:00:32.970Z,2.60
2018-04-02T04:03:56.642Z,2.60
2018-04-02T04:07:19.462Z,2.60
2018-04-02T04:10:42.318Z,2.60
2018-04-02T04:14:05.168Z,2.60
2018-04-02T04:17:28.010Z,2.60
2018-04-02T04:20:50.896Z,2.70
2018-04-02T04:24:13.707Z,2.70
2018-04-02T04:27:37.363Z,2.60
2018-04-02T04:31:00.189Z,2.60
2018-04-02T04:34:23.797Z,2.50
2018-04-02T04:37:46.626Z,2.50
2018-04-02T04:41:09.482Z,2.50
2018-04-02T04:44:32.408Z,2.50
2018-04-02T04:47:55.246Z,2.40
2018-04-02T04:51:18.129Z,2.50
2018-04-02T04:54:40.960Z,2.50
2018-04-02T04:58:03.792Z,2.50
2018-04-02T05:01:26.622Z,2.40
2018-04-02T05:04:49.508Z,2.50
2018-04-02T05:08:12.336Z,2.40
2018-04-02T05:11:35.184Z,2.40
2018-04-02T05:14:58.020Z,2.50
2018-04-02T05:18:20.884Z,2.40
2018-04-02T05:21:43.738Z,2.40
2018-04-02T05:25:06.564Z,2.40
2018-04-02T05:28:29.430Z,2.40
2018-04-02T05:31:52.260Z,2.40
2018-04-02T05:35:15.150Z,2.40
2018-04-02T05:38:37.962Z,2.40
2018-04-02T05:42:00.818Z,2.50
2018-04-02T05:45:23.698Z,2.60
2018-04-02T05:48:46.538Z,2.80
2018-04-02T05:52:09.399Z,2.90
2018-04-02T05:55:32.278Z,2.90
2018-04-02T05:58:55.121Z,2.90
2018-04-02T06:02:17.982Z,3.00
2018-04-02T06:05:40.829Z,3.00
2018-04-02T06:09:03.768Z,3.00
2018-04-02T06:12:26.698Z,3.10
2018-04-02T06:15:49.575Z,3.40
2018-04-02T06:19:12.446Z,3.60
2018-04-02T06:22:35.294Z,3.60
2018-04-02T06:25:58.140Z,3.60
2018-04-02T06:29:21.110Z,3.60
2018-04-02T06:32:44.788Z,3.70
2018-04-02T06:36:07.704Z,3.60
2018-04-02T06:39:30.561Z,3.60
2018-04-02T06:42:53.408Z,3.70
2018-04-02T06:46:16.258Z,3.80
2018-04-02T06:49:39.092Z,3.90
2018-04-02T06:53:01.952Z,4.00
2018-04-02T06:56:24.796Z,4.20
2018-04-02T06:59:47.637Z,4.40
2018-04-02T07:03:10.502Z,4.60
2018-04-02T07:06:33.362Z,4.80
2018-04-02T07:09:56.272Z,4.90
2018-04-02T07:13:19.106Z,5.00
2018-04-02T07:16:41.956Z,5.10
2018-04-02T07:20:04.855Z,5.20
2018-04-02T07:23:27.902Z,5.30
2018-04-02T07:26:51.527Z,5.60
2018-04-02T07:30:14.378Z,5.60
2018-04-02T07:33:37.266Z,5.70
2018-04-02T07:37:00.128Z,5.80
2018-04-02T07:40:23.004Z,5.90
2018-04-02T07:43:45.824Z,6.10
2018-04-02T07:47:08.662Z,6.10
2018-04-02T07:50:31.513Z,6.30
2018-04-02T07:53:54.394Z,6.30
2018-04-02T07:57:17.215Z,6.50
2018-04-02T08:00:40.119Z,6.60
2018-04-02T08:04:02.989Z,6.70
2018-04-02T08:07:25.846Z,6.80
2018-04-02T08:10:48.754Z,6.90
2018-04-02T08:14:11.750Z,7.20
2018-04-02T08:17:34.614Z,7.20
2018-04-02T08:20:57.448Z,7.30
2018-04-02T08:24:20.321Z,7.50
2018-04-02T08:27:43.220Z,7.70
2018-04-02T08:31:06.062Z,7.70
2018-04-02T08:34:28.925Z,7.80
2018-04-02T08:37:51.783Z,7.90
2018-04-02T08:41:14.680Z,8.10
2018-04-02T08:44:37.550Z,8.30
2018-04-02T08:48:00.482Z,8.30
2018-04-02T08:51:24.184Z,8.70
2018-04-02T08:54:47.019Z,8.70
2018-04-02T08:58:10.142Z,8.80
2018-04-02T09:01:33.077Z,9.00
2018-04-02T09:04:55.954Z,9.10
2018-04-02T09:08:19.579Z,9.00
2018-04-02T09:11:42.434Z,9.00
2018-04-02T09:15:05.265Z,9.10
2018-04-02T09:18:28.101Z,9.10
2018-04-02T09:21:50.979Z,9.20
2018-04-02T09:25:13.806Z,9.30
2018-04-02T09:28:36.747Z,9.30
2018-04-02T09:31:59.584Z,9.50
2018-04-02T09:35:22.649Z,9.70
2018-04-02T09:38:45.530Z,9.70
2018-04-02T09:42:10.696Z,10.00
2018-04-02T09:45:33.547Z,10.10
2018-04-02T09:48:56.451Z,10.40
2018-04-02T09:52:19.582Z,10.50
2018-04-02T09:55:42.481Z,10.60
2018-04-02T09:59:05.378Z,10.70
2018-04-02T10:06:25.066Z,11.20
2018-04-02T10:09:48.180Z,11.40
2018-04-02T10:13:11.790Z,11.40
2018-04-02T10:16:34.629Z,11.40
2018-04-02T10:19:57.515Z,11.50
2018-04-02T10:23:21.162Z,11.60
2018-04-02T10:26:44.815Z,11.80
2018-04-02T10:30:07.626Z,11.70
2018-04-02T10:33:30.588Z,11.90
2018-04-02T10:36:54.193Z,11.90
2018-04-02T10:40:17.041Z,11.80
2018-04-02T10:43:39.904Z,12.10
2018-04-02T10:47:02.759Z,12.40
2018-04-02T10:50:25.659Z,12.70
2018-04-02T10:53:48.568Z,12.80
2018-04-02T10:57:11.426Z,13.00
2018-04-02T11:00:34.278Z,13.20
2018-04-02T11:03:57.143Z,13.30
2018-04-02T11:07:20.114Z,13.40
2018-04-02T11:10:43.112Z,13.50
2018-04-02T11:14:05.954Z,13.50
2018-04-02T11:17:29.734Z,13.50
2018-04-02T11:20:52.637Z,13.70
2018-04-02T11:24:23.022Z,14.00
2018-04-02T11:27:48.108Z,14.00
2018-04-02T11:31:10.956Z,14.20
2018-04-02T11:34:34.339Z,14.20
2018-04-02T11:37:57.515Z,14.50
2018-04-02T11:41:20.376Z,14.50
2018-04-02T11:44:43.234Z,14.70
2018-04-02T11:48:06.078Z,14.80
2018-04-02T11:51:28.922Z,14.90
2018-04-02T11:54:51.840Z,15.00
2018-04-02T11:58:14.683Z,15.30
2018-04-02T12:01:37.544Z,15.30
2018-04-02T12:05:00.380Z,15.30
2018-04-02T12:08:23.685Z,15.50
2018-04-02T12:11:46.533Z,15.60
2018-04-02T12:15:09.361Z,15.60
2018-04-02T12:18:32.286Z,15.60
2018-04-02T12:21:55.928Z,15.90
2018-04-02T12:25:18.931Z,16.20
2018-04-02T12:28:41.846Z,16.30
2018-04-02T12:32:04.768Z,16.40
2018-04-02T12:35:27.904Z,16.30
2018-04-02T12:38:50.768Z,16.30
2018-04-02T12:42:13.631Z,16.30
2018-04-02T12:45:36.452Z,16.40
2018-04-02T12:48:59.300Z,16.40
2018-04-02T12:52:22.182Z,16.60
2018-04-02T12:55:45.927Z,16.90
2018-04-02T12:59:08.766Z,16.90
2018-04-02T13:06:44.632Z,16.70
2018-04-02T13:10:07.574Z,16.90
2018-04-02T13:13:30.432Z,16.90
2018-04-02T13:16:53.283Z,17.10
2018-04-02T13:20:16.710Z,17.10
2018-04-02T13:23:39.548Z,16.90
2018-04-02T13:27:02.419Z,16.90
2018-04-02T13:30:25.318Z,16.80
2018-04-02T13:33:48.158Z,16.80
2018-04-02T13:37:11.016Z,16.70
2018-04-02T13:40:33.870Z,16.80
2018-04-02T13:43:56.710Z,16.70
2018-04-02T13:47:19.552Z,16.60
2018-04-02T13:50:42.554Z,16.60
2018-04-02T13:54:05.845Z,16.50
2018-04-02T13:57:28.738Z,16.40
2018-04-02T14:00:51.623Z,16.40
2018-04-02T14:04:14.553Z,16.40
2018-04-02T14:07:37.446Z,16.20
2018-04-02T14:11:00.373Z,16.20
2018-04-02T14:14:23.936Z,16.20
2018-04-02T14:17:46.891Z,16.10
2018-04-02T14:21:10.647Z,15.90
2018-04-02T14:24:33.494Z,15.90
2018-04-02T14:27:57.370Z,16.10
2018-04-02T14:31:20.304Z,15.80
2018-04-02T14:34:43.282Z,15.80
2018-04-02T14:38:08.336Z,15.80
2018-04-02T14:41:31.156Z,15.70
2018-04-02T14:44:54.086Z,15.70
2018-04-02T14:48:16.958Z,15.70
2018-04-02T14:51:40.596Z,15.70
2018-04-02T14:55:03.534Z,15.70
2018-04-02T14:58:27.150Z,15.60
2018-04-02T15:01:50.008Z,15.70
2018-04-02T15:05:13.284Z,15.70
2018-04-02T15:08:37.140Z,15.70
2018-04-02T15:12:00.376Z,15.80
2018-04-02T15:15:23.207Z,15.70
2018-04-02T15:18:46.128Z,15.60
2018-04-02T15:22:08.971Z,15.60
2018-04-02T15:25:31.959Z,15.50
2018-04-02T15:28:55.028Z,15.50
2018-04-02T15:32:17.884Z,15.40
2018-04-02T15:35:40.737Z,15.30
2018-04-02T15:39:03.584Z,15.30
2018-04-02T15:42:26.432Z,15.20
2018-04-02T15:45:49.343Z,15.10
2018-04-02T15:49:12.586Z,15.20
2018-04-02T15:52:36.366Z,15.10
2018-04-02T15:55:59.213Z,15.10
2018-04-02T15:59:22.045Z,15.10
2018-04-02T16:02:45.014Z,15.10
2018-04-02T16:06:07.970Z,15.10
2018-04-02T16:09:31.640Z,15.10
2018-04-02T16:12:55.239Z,15.20
2018-04-02T16:16:18.132Z,15.10
2018-04-02T16:19:40.974Z,15.20
2018-04-02T16:23:03.912Z,15.20
2018-04-02T16:26:27.553Z,15.20
2018-04-02T16:29:50.441Z,15.20
2018-04-02T16:33:13.306Z,15.30
2018-04-02T16:36:36.145Z,15.10
2018-04-02T16:39:59.068Z,15.00
2018-04-02T16:43:22.834Z,15.00
2018-04-02T16:46:45.716Z,14.90
2018-04-02T16:50:08.548Z,14.80
2018-04-02T16:53:33.528Z,14.90
2018-04-02T16:56:59.487Z,14.90
2018-04-02T17:00:24.204Z,14.90
2018-04-02T17:03:47.063Z,14.90
2018-04-02T17:07:09.940Z,14.80
2018-04-02T17:10:32.872Z,14.80
2018-04-02T17:13:56.484Z,14.60
2018-04-02T17:17:19.363Z,14.60
2018-04-02T17:20:42.338Z,14.50
2018-04-02T17:24:05.247Z,14.50
2018-04-02T17:27:28.982Z,14.40
2018-04-02T17:30:52.656Z,14.30
2018-04-02T17:34:16.272Z,14.20
2018-04-02T17:37:39.236Z,14.20
2018-04-02T17:41:02.112Z,14.20
2018-04-02T17:44:25.032Z,14.20
2018-04-02T17:47:47.880Z,14.20
2018-04-02T17:51:10.749Z,14.10
2018-04-02T17:54:34.398Z,13.80
2018-04-02T17:57:58.030Z,13.70
2018-04-02T18:01:20.895Z,13.70
2018-04-02T18:04:46.850Z,13.50
2018-04-02T18:08:09.681Z,13.50
2018-04-02T18:11:32.560Z,13.40
2018-04-02T18:14:55.456Z,13.30
2018-04-02T18:18:18.328Z,13.30
2018-04-02T18:21:41.372Z,13.30
2018-04-02T18:25:05.241Z,13.20
2018-04-02T18:28:28.130Z,13.10
2018-04-02T18:31:51.859Z,12.90
2018-04-02T18:35:14.778Z,12.90
2018-04-02T18:38:38.446Z,12.80
2018-04-02T18:42:01.304Z,12.70
2018-04-02T18:45:24.158Z,12.70
2018-04-02T18:48:47.084Z,12.70
2018-04-02T18:52:09.906Z,12.60
2018-04-02T18:55:32.768Z,12.50
2018-04-02T18:58:55.613Z,12.50
2018-04-02T19:02:18.502Z,12.60
2018-04-02T19:05:42.139Z,12.50
2018-04-02T19:09:05.962Z,12.50
2018-04-02T19:12:30.046Z,12.50
2018-04-02T19:15:53.054Z,12.40
2018-04-02T19:19:15.917Z,12.40
2018-04-02T19:22:39.619Z,12.40
2018-04-02T19:26:03.309Z,12.30
2018-04-02T19:29:26.227Z,12.30
2018-04-02T19:32:50.046Z,12.30
2018-04-02T19:36:13.313Z,12.20
2018-04-02T19:39:36.249Z,12.20
2018-04-02T19:42:59.119Z,12.20
2018-04-02T19:46:22.039Z,12.20
2018-04-02T19:49:45.019Z,12.10
2018-04-02T19:53:07.868Z,12.10
2018-04-02T19:56:30.710Z,12.10
2018-04-02T19:59:53.627Z,12.10
2018-04-02T20:03:16.531Z,12.00
2018-04-02T20:06:40.141Z,11.90
2018-04-02T20:10:02.995Z,11.90
2018-04-02T20:13:25.909Z,11.90
2018-04-02T20:16:48.812Z,11.90
2018-04-02T20:20:11.697Z,11.80
2018-04-02T20:23:35.342Z,11.80
2018-04-02T20:26:58.313Z,11.80
2018-04-02T20:30:21.170Z,11.80
2018-04-02T20:33:44.001Z,11.80
2018-04-02T20:37:06.831Z,11.70
2018-04-02T20:40:29.724Z,11.80
2018-04-02T20:43:52.609Z,11.70
2018-04-02T20:47:15.641Z,11.70
2018-04-02T20:50:38.463Z,11.70
2018-04-02T20:54:01.337Z,11.60
2018-04-02T20:57:24.262Z,11.70
2018-04-02T21:00:47.880Z,11.70
2018-04-02T21:04:10.716Z,11.70
2018-04-02T21:07:33.592Z,11.70
2018-04-02T21:10:56.426Z,11.90
2018-04-02T21:14:19.274Z,11.90
2018-04-02T21:17:42.718Z,11.80
2018-04-02T21:21:05.563Z,11.80
2018-04-02T21:24:28.480Z,11.80
2018-04-02T21:27:51.345Z,11.80
2018-04-02T21:31:14.247Z,11.70
2018-04-02T21:34:37.075Z,11.70
2018-04-02T21:38:00.747Z,11.70
2018-04-02T21:41:24.040Z,11.70
2018-04-02T21:44:47.022Z,11.70
2018-04-02T21:48:10.003Z,11.60
2018-04-02T21:51:33.053Z,11.60
2018-04-02T21:54:55.875Z,11.60
2018-04-02T21:58:18.812Z,11.70
2018-04-02T22:01:42.440Z,11.60
2018-04-02T22:05:05.328Z,11.60
2018-04-02T22:08:28.180Z,11.60
2018-04-02T22:11:51.028Z,11.60
2018-04-02T22:15:13.879Z,11.50
2018-04-02T22:18:39.518Z,11.50
2018-04-02T22:22:03.158Z,11.50
2018-04-02T22:25:26.859Z,11.50
2018-04-02T22:28:49.710Z,11.50
2018-04-02T22:32:12.552Z,11.40
2018-04-02T22:35:35.424Z,11.40
2018-04-02T22:38:58.334Z,11.40
2018-04-02T22:42:21.209Z,11.30
2018-04-02T22:45:44.811Z,11.20
2018-04-02T22:49:07.665Z,11.20
2018-04-02T22:52:30.523Z,11.30
2018-04-02T22:55:53.347Z,11.30
2018-04-02T22:59:16.207Z,11.20
2018-04-02T23:02:39.053Z,11.20
2018-04-02T23:06:01.917Z,11.30
2018-04-02T23:09:24.776Z,11.30
2018-04-02T23:12:48.424Z,11.30
2018-04-02T23:16:12.062Z,11.30
2018-04-02T23:19:34.910Z,11.30
2018-04-02T23:22:57.815Z,11.30
2018-04-02T23:26:20.707Z,11.40
2018-04-02T23:29:44.306Z,11.50
2018-04-02T23:33:07.189Z,11.40
2018-04-02T23:36:30.086Z,11.50
2018-04-02T23:39:52.938Z,11.60
2018-04-02T23:43:15.791Z,11.60
2018-04-02T23:46:38.628Z,11.60
2018-04-02T23:50:01.487Z,11.60
2018-04-02T23:53:26.883Z,11.70
2018-04-02T23:56:49.818Z,11.70
